Chautauqua, Ohio
Current Conditions -  °F | °C
As of 1:53 PM on Wednesday 26 Nov 2014 (Local Time) from KMGY Reporting Station
Overcast Overcast  
Wind Chill: 30°   Ceiling: 1800
Heat Index: 34°   Visibility: 8mi
Dew Point: 27°   Wind: 5mph
Humidity: 75%   Direction: NA
Pressure: 30.05"   Gusts: NA
Location:  39.6178°N, 84.2528°W
Report Text: KMGY 261853Z AUTO VRB04KT 8SM BKN018 OVC029 01/M03 A3005 RMK AO2 SLP184 T00111028
Loading
Personal Weather Stations






























Interactive Weather Map New forecast layout! Learn more

10-Day Weather Forecast

Advertisements
Track Severe Weather on mobile